Wetterdaten: Woche 26.12.16 - 01.01.17 (KW52)
Datum Zeit Temp. A. Feuchte A. Luftdruck Regen Wind Richtung Taupunkt Windchill Windben
26.12.2016 00:00 5,2 C 87 % 1030,4 hPa 0,0 l/m 3,3 km/h (1 Bft) O-NO 3,3 C 5,2 C 6,7 km/h (2 Bft)
26.12.2016 01:00 5,0 C 88 % 1030,2 hPa 0,0 l/m 1,8 km/h (1 Bft) NO 3,2 C 5,0 C 5,2 km/h (1 Bft)
26.12.2016 02:00 4,3 C 90 % 1030,0 hPa 0,0 l/m 1,0 km/h (0 Bft) N-NO 2,8 C 4,3 C 3,5 km/h (1 Bft)
26.12.2016 03:00 3,7 C 93 % 1030,1 hPa 0,0 l/m 1,0 km/h (0 Bft) N-NO 2,6 C 3,7 C 3,5 km/h (1 Bft)
26.12.2016 04:00 3,8 C 92 % 1029,7 hPa 0,0 l/m 2,7 km/h (1 Bft) O-NO 2,6 C 3,8 C 6,8 km/h (2 Bft)
26.12.2016 05:00 3,3 C 93 % 1029,5 hPa 0,0 l/m 1,9 km/h (1 Bft) N-NO 2,3 C 3,3 C 5,1 km/h (1 Bft)
26.12.2016 06:00 2,9 C 94 % 1029,4 hPa 0,0 l/m 2,0 km/h (1 Bft) NO 2,0 C 2,9 C 5,8 km/h (2 Bft)
26.12.2016 07:00 2,3 C 95 % 1029,1 hPa 0,0 l/m 1,0 km/h (0 Bft) N-NO 1,6 C 2,3 C 4,3 km/h (1 Bft)
26.12.2016 08:00 2,9 C 96 % 1029,2 hPa 0,0 l/m 3,2 km/h (1 Bft) O-NO 2,4 C 2,8 C 9,3 km/h (2 Bft)
26.12.2016 09:00 4,1 C 95 % 1029,5 hPa 0,0 l/m 6,2 km/h (2 Bft) O-NO 3,4 C 3,9 C 14,4 km/h (3 Bft)
26.12.2016 10:00 4,4 C 95 % 1030,5 hPa 0,0 l/m 6,3 km/h (2 Bft) O-NO 3,6 C 4,1 C 16,0 km/h (3 Bft)
26.12.2016 11:00 4,5 C 95 % 1031,1 hPa 0,0 l/m 6,9 km/h (2 Bft) O-NO 3,8 C 3,8 C 16,1 km/h (3 Bft)
26.12.2016 12:00 4,9 C 94 % 1031,0 hPa 0,0 l/m 6,3 km/h (2 Bft) O-NO 4,1 C 4,4 C 12,0 km/h (2 Bft)
26.12.2016 13:00 5,1 C 95 % 1031,2 hPa 0,0 l/m 6,4 km/h (2 Bft) O-NO 4,4 C 4,7 C 11,5 km/h (2 Bft)
26.12.2016 14:00 5,1 C 96 % 1031,3 hPa 0,0 l/m 4,6 km/h (1 Bft) O-NO 4,4 C 5,0 C 7,9 km/h (2 Bft)
26.12.2016 15:00 5,2 C 96 % 1031,7 hPa 0,3 l/m 2,4 km/h (1 Bft) NO 4,6 C 5,2 C 4,3 km/h (1 Bft)
26.12.2016 16:00 5,3 C 95 % 1032,0 hPa 0,0 l/m 2,0 km/h (1 Bft) NO 4,6 C 5,3 C 4,0 km/h (1 Bft)
26.12.2016 17:00 5,5 C 96 % 1032,5 hPa 0,5 l/m 2,1 km/h (1 Bft) O-NO 5,0 C 5,5 C 3,8 km/h (1 Bft)
26.12.2016 18:00 5,6 C 96 % 1033,0 hPa 0,8 l/m 2,0 km/h (1 Bft) O-NO 5,1 C 5,6 C 4,5 km/h (1 Bft)
26.12.2016 19:00 5,0 C 94 % 1034,5 hPa 0,3 l/m 1,3 km/h (1 Bft) O-NO 4,0 C 5,0 C 4,8 km/h (1 Bft)
26.12.2016 20:00 3,6 C 93 % 1035,6 hPa 0,3 l/m 1,1 km/h (1 Bft) O 2,6 C 3,6 C 3,9 km/h (1 Bft)
26.12.2016 21:00 2,4 C 93 % 1036,5 hPa 0,0 l/m 0,6 km/h (0 Bft) O 1,4 C 2,4 C 2,3 km/h (1 Bft)
26.12.2016 22:00 1,1 C 95 % 1036,9 hPa 0,0 l/m 0,3 km/h (0 Bft) O-SO 0,4 C 1,1 C 1,7 km/h (1 Bft)
26.12.2016 23:00 0,7 C 96 % 1037,1 hPa 0,0 l/m 0,4 km/h (0 Bft) O-SO 0,1 C 0,7 C 2,0 km/h (1 Bft)
27.12.2016 00:00 0,7 C 96 % 1036,9 hPa 0,0 l/m 0,8 km/h (0 Bft) O-SO 0,1 C 0,7 C 3,4 km/h (1 Bft)
27.12.2016 01:00 0,8 C 95 % 1037,3 hPa 0,0 l/m 0,6 km/h (0 Bft) O-NO 0,1 C 0,8 C 3,2 km/h (1 Bft)
27.12.2016 02:00 0,4 C 93 % 1038,1 hPa 0,0 l/m 1,0 km/h (0 Bft) O-SO -0,6 C 0,4 C 4,0 km/h (1 Bft)
27.12.2016 03:00 -0,2 C 94 % 1038,5 hPa 0,0 l/m 1,1 km/h (1 Bft) O -1,1 C -0,2 C 4,5 km/h (1 Bft)
27.12.2016 04:00 0,3 C 91 % 1039,0 hPa 0,0 l/m 2,3 km/h (1 Bft) O-NO -1,0 C 0,3 C 8,4 km/h (2 Bft)
27.12.2016 05:00 -0,4 C 91 % 1039,4 hPa 0,0 l/m 1,6 km/h (1 Bft) O-SO -1,7 C -0,4 C 4,6 km/h (1 Bft)
27.12.2016 06:00 -0,8 C 92 % 1039,5 hPa 0,0 l/m 1,4 km/h (1 Bft) O-SO -2,0 C -0,8 C 4,0 km/h (1 Bft)
27.12.2016 07:00 -2,0 C 94 % 1040,4 hPa 0,0 l/m 0,5 km/h (0 Bft) S-SO -2,9 C -2,0 C 2,0 km/h (1 Bft)
27.12.2016 08:00 -2,3 C 95 % 1040,8 hPa 0,0 l/m 0,4 km/h (0 Bft) S-SO -3,0 C -2,3 C 1,9 km/h (1 Bft)
27.12.2016 09:00 -0,9 C 96 % 1041,6 hPa 0,0 l/m 0,2 km/h (0 Bft) S-SO -1,5 C -0,9 C 1,2 km/h (1 Bft)
27.12.2016 10:00 0,2 C 94 % 1042,4 hPa 0,0 l/m 0,7 km/h (0 Bft) S-SO -0,6 C 0,2 C 2,4 km/h (1 Bft)
27.12.2016 11:00 1,6 C 88 % 1042,0 hPa 0,0 l/m 3,6 km/h (1 Bft) O-NO -0,2 C 1,6 C 7,6 km/h (2 Bft)
27.12.2016 12:00 2,3 C 85 % 1042,0 hPa 0,0 l/m 2,3 km/h (1 Bft) O-NO 0,1 C 2,3 C 5,5 km/h (2 Bft)
27.12.2016 13:00 3,4 C 79 % 1042,3 hPa 0,0 l/m 3,5 km/h (1 Bft) O-NO 0,1 C 3,4 C 9,5 km/h (2 Bft)
27.12.2016 14:00 3,5 C 79 % 1042,7 hPa 0,0 l/m 3,7 km/h (1 Bft) O-NO 0,1 C 3,5 C 9,1 km/h (2 Bft)
27.12.2016 15:00 3,5 C 77 % 1043,1 hPa 0,0 l/m 2,7 km/h (1 Bft) O-NO -0,1 C 3,5 C 6,7 km/h (2 Bft)
27.12.2016 16:00 1,3 C 86 % 1043,6 hPa 0,0 l/m 0,6 km/h (0 Bft) O-NO -0,9 C 1,3 C 2,1 km/h (1 Bft)
27.12.2016 17:00 -0,9 C 92 % 1044,4 hPa 0,0 l/m 0,0 km/h (0 Bft) O-NO -2,0 C -0,9 C 0,6 km/h (0 Bft)
27.12.2016 18:00 -1,3 C 93 % 1044,8 hPa 0,0 l/m 0,6 km/h (0 Bft) O-NO -2,2 C -1,3 C 2,0 km/h (1 Bft)
27.12.2016 19:00 -2,1 C 94 % 1045,4 hPa 0,0 l/m 0,1 km/h (0 Bft) O-NO -2,9 C -2,1 C 0,9 km/h (0 Bft)
27.12.2016 20:00 -1,8 C 95 % 1045,9 hPa 0,0 l/m 0,1 km/h (0 Bft) O-NO -2,5 C -1,8 C 1,3 km/h (1 Bft)
27.12.2016 21:00 -2,1 C 95 % 1046,0 hPa 0,0 l/m 0,2 km/h (0 Bft) SO -2,8 C -2,1 C 1,3 km/h (1 Bft)
27.12.2016 22:00 -3,0 C 95 % 1046,0 hPa 0,0 l/m 0,1 km/h (0 Bft) SO -3,7 C -3,0 C 0,4 km/h (0 Bft)
27.12.2016 23:00 -3,7 C 95 % 1046,0 hPa 0,0 l/m 0,0 km/h (0 Bft) SO -4,4 C -3,7 C 0,4 km/h (0 Bft)
28.12.2016 00:00 -4,1 C 96 % 1045,9 hPa 0,0 l/m 0,0 km/h (0 Bft) SO -4,8 C -4,1 C 0,1 km/h (0 Bft)
28.12.2016 01:00 -4,5 C 96 % 1045,4 hPa 0,0 l/m 0,0 km/h (0 Bft) SO -5,1 C -4,5 C 0,3 km/h (0 Bft)
28.12.2016 02:00 -4,8 C 95 % 1045,3 hPa 0,0 l/m 0,0 km/h (0 Bft) SO -5,5 C -4,8 C 0,1 km/h (0 Bft)
28.12.2016 03:00 -5,1 C 95 % 1045,5 hPa 0,0 l/m 0,1 km/h (0 Bft) SO -5,8 C -5,1 C 0,8 km/h (0 Bft)
28.12.2016 04:00 -5,4 C 95 % 1045,4 hPa 0,0 l/m 0,1 km/h (0 Bft) SO -6,1 C -5,4 C 1,1 km/h (0 Bft)
28.12.2016 05:00 -5,9 C 94 % 1045,2 hPa 0,0 l/m 0,0 km/h (0 Bft) SO -6,7 C -5,9 C 0,0 km/h (0 Bft)
28.12.2016 06:00 -6,1 C 95 % 1045,1 hPa 0,0 l/m 0,0 km/h (0 Bft) SO -6,8 C -6,1 C 0,3 km/h (0 Bft)
28.12.2016 07:00 -6,3 C 94 % 1045,6 hPa 0,0 l/m 0,0 km/h (0 Bft) SO -7,0 C -6,3 C 0,1 km/h (0 Bft)
28.12.2016 08:00 -6,6 C 94 % 1046,1 hPa 0,0 l/m 0,0 km/h (0 Bft) SO -7,3 C -6,6 C 0,4 km/h (0 Bft)
28.12.2016 09:00 -5,5 C 96 % 1046,1 hPa 0,0 l/m 0,2 km/h (0 Bft) SO -6,1 C -5,5 C 1,5 km/h (1 Bft)
28.12.2016 10:00 -2,8 C 94 % 1046,1 hPa 0,3 l/m 0,9 km/h (0 Bft) W -3,7 C -2,8 C 2,8 km/h (1 Bft)
28.12.2016 11:00 0,1 C 89 % 1045,6 hPa 0,0 l/m 1,5 km/h (1 Bft) N-NW -1,4 C 0,1 C 3,1 km/h (1 Bft)
28.12.2016 12:00 2,3 C 86 % 1045,1 hPa 0,0 l/m 2,1 km/h (1 Bft) NW 0,2 C 2,3 C 4,5 km/h (1 Bft)
28.12.2016 13:00 2,4 C 85 % 1044,5 hPa 0,0 l/m 3,4 km/h (1 Bft) NW 0,1 C 2,4 C 7,8 km/h (2 Bft)
28.12.2016 14:00 1,5 C 87 % 1044,2 hPa 0,0 l/m 2,5 km/h (1 Bft) NW -0,4 C 1,5 C 7,0 km/h (2 Bft)
28.12.2016 15:00 1,3 C 88 % 1044,0 hPa 0,0 l/m 1,4 km/h (1 Bft) NW -0,5 C 1,3 C 3,7 km/h (1 Bft)
28.12.2016 16:00 0,7 C 86 % 1043,7 hPa 0,0 l/m 0,0 km/h (0 Bft) NW -1,3 C 0,7 C 0,4 km/h (0 Bft)
28.12.2016 17:00 -2,0 C 92 % 1043,8 hPa 0,0 l/m 0,0 km/h (0 Bft) NW -3,1 C -2,0 C 0,1 km/h (0 Bft)
28.12.2016 18:00 -2,9 C 94 % 1043,9 hPa 0,0 l/m 0,0 km/h (0 Bft) NW -3,7 C -2,9 C 0,0 km/h (0 Bft)
28.12.2016 19:00 -3,8 C 95 % 1044,1 hPa 0,0 l/m 0,0 km/h (0 Bft) NW -4,5 C -3,8 C 0,0 km/h (0 Bft)
28.12.2016 20:00 -4,3 C 95 % 1044,3 hPa 0,0 l/m 0,0 km/h (0 Bft) NW -5,0 C -4,3 C 0,1 km/h (0 Bft)
28.12.2016 21:00 -4,1 C 96 % 1044,3 hPa 0,0 l/m 0,0 km/h (0 Bft) NW -4,6 C -4,1 C 0,1 km/h (0 Bft)
28.12.2016 22:00 -3,7 C 96 % 1044,1 hPa 0,0 l/m 0,0 km/h (0 Bft) NW -4,3 C -3,7 C 0,4 km/h (0 Bft)
28.12.2016 23:00 -4,6 C 95 % 1043,8 hPa 0,0 l/m 0,0 km/h (0 Bft) NW -5,3 C -4,6 C 0,3 km/h (0 Bft)
29.12.2016 00:00 -5,1 C 95 % 1043,5 hPa 0,0 l/m 0,0 km/h (0 Bft) NW -5,8 C -5,1 C 0,0 km/h (0 Bft)
29.12.2016 01:00 -5,6 C 95 % 1042,9 hPa 0,0 l/m 0,0 km/h (0 Bft) NW -6,3 C -5,6 C 0,0 km/h (0 Bft)
29.12.2016 02:00 -5,8 C 95 % 1042,7 hPa 0,0 l/m 0,0 km/h (0 Bft) NW -6,5 C -5,8 C 0,0 km/h (0 Bft)
29.12.2016 03:00 -6,4 C 94 % 1042,5 hPa 0,0 l/m 0,0 km/h (0 Bft) NW -7,2 C -6,4 C 0,0 km/h (0 Bft)
29.12.2016 04:00 -7,2 C 94 % 1042,2 hPa 0,0 l/m 0,0 km/h (0 Bft) NW -8,0 C -7,2 C 0,0 km/h (0 Bft)
29.12.2016 05:00 -7,6 C 94 % 1041,9 hPa 0,0 l/m 0,0 km/h (0 Bft) NW -8,4 C -7,6 C 0,3 km/h (0 Bft)
29.12.2016 06:00 -7,8 C 94 % 1041,8 hPa 0,0 l/m 0,0 km/h (0 Bft) NW -8,7 C -7,8 C 0,7 km/h (0 Bft)
29.12.2016 07:00 -8,1 C 93 % 1041,8 hPa 0,0 l/m 0,0 km/h (0 Bft) NW -9,0 C -8,1 C 0,4 km/h (0 Bft)
29.12.2016 08:00 -8,3 C 94 % 1041,8 hPa 0,0 l/m 0,0 km/h (0 Bft) NW -9,1 C -8,3 C 0,0 km/h (0 Bft)
29.12.2016 09:00 -7,0 C 95 % 1041,8 hPa 0,0 l/m 0,1 km/h (0 Bft) NW -7,6 C -7,0 C 0,5 km/h (0 Bft)
29.12.2016 10:00 -3,9 C 93 % 1041,8 hPa 0,0 l/m 0,7 km/h (0 Bft) NW -4,8 C -3,9 C 1,9 km/h (1 Bft)
29.12.2016 11:00 -0,7 C 90 % 1041,2 hPa 0,3 l/m 1,1 km/h (1 Bft) NW -2,2 C -0,7 C 2,8 km/h (1 Bft)
29.12.2016 12:00 2,1 C 85 % 1040,7 hPa 0,0 l/m 2,0 km/h (1 Bft) NW -0,1 C 2,1 C 3,9 km/h (1 Bft)
29.12.2016 13:00 3,7 C 79 % 1040,2 hPa 0,0 l/m 1,8 km/h (1 Bft) W-NW 0,4 C 3,7 C 3,4 km/h (1 Bft)
29.12.2016 14:00 4,2 C 76 % 1039,6 hPa 0,0 l/m 2,3 km/h (1 Bft) S-SW 0,4 C 4,2 C 5,0 km/h (1 Bft)
29.12.2016 15:00 4,2 C 76 % 1039,4 hPa 0,0 l/m 1,5 km/h (1 Bft) SW 0,3 C 4,2 C 3,4 km/h (1 Bft)
29.12.2016 16:00 2,2 C 82 % 1039,4 hPa 0,0 l/m 0,6 km/h (0 Bft) SW -0,6 C 2,2 C 1,9 km/h (1 Bft)
29.12.2016 17:00 -0,9 C 89 % 1039,7 hPa 0,0 l/m 0,0 km/h (0 Bft) N -2,5 C -0,9 C 0,2 km/h (0 Bft)
29.12.2016 18:00 -2,5 C 93 % 1039,8 hPa 0,0 l/m 0,0 km/h (0 Bft) S-SW -3,5 C -2,5 C 0,2 km/h (0 Bft)
29.12.2016 19:00 -3,4 C 94 % 1039,9 hPa 0,0 l/m 0,0 km/h (0 Bft) S-SW -4,2 C -3,4 C 0,0 km/h (0 Bft)
29.12.2016 20:00 -4,0 C 95 % 1039,8 hPa 0,0 l/m 0,0 km/h (0 Bft) S-SW -4,7 C -4,0 C 0,1 km/h (0 Bft)
29.12.2016 21:00 -4,6 C 95 % 1039,6 hPa 0,0 l/m 0,0 km/h (0 Bft) S-SW -5,3 C -4,6 C 0,3 km/h (0 Bft)
29.12.2016 22:00 -5,0 C 95 % 1039,5 hPa 0,0 l/m 0,0 km/h (0 Bft) S-SW -5,7 C -5,0 C 0,3 km/h (0 Bft)
29.12.2016 23:00 -5,4 C 95 % 1039,7 hPa 0,0 l/m 0,0 km/h (0 Bft) S-SW -6,1 C -5,4 C 0,1 km/h (0 Bft)
30.12.2016 00:00 -6,1 C 94 % 1039,9 hPa 0,0 l/m 0,0 km/h (0 Bft) S-SW -6,9 C -6,1 C 0,0 km/h (0 Bft)
30.12.2016 01:00 -6,6 C 94 % 1039,8 hPa 0,0 l/m 0,0 km/h (0 Bft) S-SW -7,3 C -6,6 C 0,3 km/h (0 Bft)
30.12.2016 02:00 -6,9 C 94 % 1039,7 hPa 0,0 l/m 0,0 km/h (0 Bft) S-SW -7,7 C -6,9 C 0,7 km/h (0 Bft)
30.12.2016 03:00 -7,3 C 93 % 1039,8 hPa 0,0 l/m 0,0 km/h (0 Bft) S-SW -8,2 C -7,3 C 0,1 km/h (0 Bft)
30.12.2016 04:00 -7,8 C 93 % 1039,9 hPa 0,0 l/m 0,0 km/h (0 Bft) S-SW -8,7 C -7,8 C 0,0 km/h (0 Bft)
30.12.2016 05:00 -8,1 C 93 % 1039,7 hPa 0,0 l/m 0,0 km/h (0 Bft) S-SW -9,0 C -8,1 C 0,2 km/h (0 Bft)
30.12.2016 06:00 -8,2 C 93 % 1039,8 hPa 0,0 l/m 0,0 km/h (0 Bft) S-SW -9,1 C -8,2 C 0,2 km/h (0 Bft)
30.12.2016 07:00 -8,5 C 93 % 1040,0 hPa 0,0 l/m 0,0 km/h (0 Bft) S-SW -9,4 C -8,5 C 0,1 km/h (0 Bft)
30.12.2016 08:00 -8,6 C 93 % 1040,1 hPa 0,0 l/m 0,1 km/h (0 Bft) S-SW -9,6 C -8,6 C 0,4 km/h (0 Bft)
30.12.2016 09:00 -7,1 C 95 % 1040,4 hPa 0,0 l/m 0,3 km/h (0 Bft) S-SW -7,7 C -7,1 C 1,3 km/h (1 Bft)
30.12.2016 10:00 -3,8 C 92 % 1040,4 hPa 0,0 l/m 0,7 km/h (0 Bft) S-SW -4,9 C -3,8 C 1,7 km/h (1 Bft)
30.12.2016 11:00 -0,4 C 87 % 1040,0 hPa 0,0 l/m 1,2 km/h (1 Bft) SW -2,3 C -0,4 C 2,6 km/h (1 Bft)
30.12.2016 12:00 1,7 C 82 % 1039,4 hPa 0,0 l/m 1,4 km/h (1 Bft) W-SW -1,1 C 1,7 C 3,0 km/h (1 Bft)
30.12.2016 13:00 4,6 C 68 % 1038,4 hPa 0,0 l/m 1,4 km/h (1 Bft) N -0,9 C 4,6 C 3,5 km/h (1 Bft)
30.12.2016 14:00 5,5 C 65 % 1037,8 hPa 0,0 l/m 1,1 km/h (1 Bft) N -0,4 C 5,5 C 2,8 km/h (1 Bft)
30.12.2016 15:00 5,4 C 67 % 1037,9 hPa 0,0 l/m 0,2 km/h (0 Bft) N -0,1 C 5,4 C 0,8 km/h (0 Bft)
30.12.2016 16:00 1,9 C 75 % 1038,2 hPa 0,0 l/m 0,0 km/h (0 Bft) N -2,0 C 1,9 C 0,4 km/h (0 Bft)
30.12.2016 17:00 -2,5 C 88 % 1038,4 hPa 0,0 l/m 0,0 km/h (0 Bft) N -4,3 C -2,5 C 0,0 km/h (0 Bft)
30.12.2016 18:00 -3,6 C 91 % 1038,5 hPa 0,0 l/m 0,0 km/h (0 Bft) N -4,9 C -3,6 C 0,2 km/h (0 Bft)
30.12.2016 19:00 -4,5 C 93 % 1038,5 hPa 0,0 l/m 0,0 km/h (0 Bft) N -5,4 C -4,5 C 0,3 km/h (0 Bft)
30.12.2016 20:00 -5,2 C 93 % 1038,7 hPa 0,0 l/m 0,0 km/h (0 Bft) N -6,2 C -5,2 C 0,1 km/h (0 Bft)
30.12.2016 21:00 -5,8 C 94 % 1038,7 hPa 0,0 l/m 0,0 km/h (0 Bft) N -6,6 C -5,8 C 0,0 km/h (0 Bft)
30.12.2016 22:00 -6,4 C 94 % 1038,6 hPa 0,0 l/m 0,0 km/h (0 Bft) N -7,2 C -6,4 C 0,4 km/h (0 Bft)
30.12.2016 23:00 -6,8 C 94 % 1038,5 hPa 0,0 l/m 0,1 km/h (0 Bft) N -7,7 C -6,8 C 0,3 km/h (0 Bft)
31.12.2016 00:00 -7,3 C 94 % 1038,3 hPa 0,0 l/m 0,0 km/h (0 Bft) N -8,1 C -7,3 C 0,4 km/h (0 Bft)
31.12.2016 01:00 -7,8 C 93 % 1038,0 hPa 0,0 l/m 0,0 km/h (0 Bft) N -8,7 C -7,8 C 0,1 km/h (0 Bft)
31.12.2016 02:00 -8,2 C 93 % 1037,9 hPa 0,0 l/m 0,0 km/h (0 Bft) N -9,1 C -8,2 C 0,3 km/h (0 Bft)
31.12.2016 03:00 -8,7 C 93 % 1037,5 hPa 0,0 l/m 0,0 km/h (0 Bft) N -9,7 C -8,7 C 0,0 km/h (0 Bft)
31.12.2016 04:00 -8,8 C 93 % 1037,1 hPa 0,0 l/m 0,0 km/h (0 Bft) N -9,7 C -8,8 C 0,3 km/h (0 Bft)
31.12.2016 05:00 -8,8 C 92 % 1036,7 hPa 0,0 l/m 0,0 km/h (0 Bft) N -9,9 C -8,8 C 0,3 km/h (0 Bft)
31.12.2016 06:00 -8,9 C 92 % 1036,6 hPa 0,0 l/m 0,0 km/h (0 Bft) N -10,0 C -8,9 C 0,2 km/h (0 Bft)
31.12.2016 07:00 -9,2 C 92 % 1036,5 hPa 0,0 l/m 0,0 km/h (0 Bft) N -10,3 C -9,2 C 0,4 km/h (0 Bft)
31.12.2016 08:00 -9,3 C 92 % 1036,5 hPa 0,0 l/m 0,0 km/h (0 Bft) N -10,3 C -9,3 C 0,3 km/h (0 Bft)
31.12.2016 09:00 -7,5 C 94 % 1036,7 hPa 0,0 l/m 0,1 km/h (0 Bft) N -8,4 C -7,5 C 0,7 km/h (0 Bft)
31.12.2016 10:00 -4,1 C 86 % 1036,6 hPa 0,0 l/m 0,9 km/h (0 Bft) N -6,0 C -4,1 C 2,4 km/h (1 Bft)
31.12.2016 11:00 -0,8 C 80 % 1035,9 hPa 0,0 l/m 1,2 km/h (1 Bft) NW -3,8 C -0,8 C 2,8 km/h (1 Bft)
31.12.2016 12:00 1,8 C 74 % 1035,2 hPa 0,0 l/m 1,3 km/h (1 Bft) NW -2,3 C 1,8 C 2,4 km/h (1 Bft)
31.12.2016 13:00 5,1 C 65 % 1034,4 hPa 0,0 l/m 1,1 km/h (1 Bft) NW -0,9 C 5,1 C 2,4 km/h (1 Bft)
31.12.2016 14:00 6,3 C 62 % 1033,7 hPa 0,0 l/m 0,9 km/h (0 Bft) NW -0,5 C 6,3 C 2,1 km/h (1 Bft)
31.12.2016 15:00 6,3 C 61 % 1033,4 hPa 0,0 l/m 0,1 km/h (0 Bft) NW -0,6 C 6,3 C 0,9 km/h (0 Bft)
31.12.2016 16:00 2,2 C 68 % 1033,2 hPa 0,0 l/m 0,1 km/h (0 Bft) NW -3,0 C 2,2 C 0,8 km/h (0 Bft)
31.12.2016 17:00 -2,4 C 83 % 1032,9 hPa 0,0 l/m 0,0 km/h (0 Bft) NW -4,9 C -2,4 C 0,1 km/h (0 Bft)
31.12.2016 18:00 -3,6 C 87 % 1032,7 hPa 0,0 l/m 0,0 km/h (0 Bft) NW -5,5 C -3,6 C 0,1 km/h (0 Bft)
31.12.2016 19:00 -4,6 C 89 % 1032,4 hPa 0,0 l/m 0,0 km/h (0 Bft) NW -6,1 C -4,6 C 0,0 km/h (0 Bft)
31.12.2016 20:00 -5,2 C 89 % 1032,1 hPa 0,0 l/m 0,0 km/h (0 Bft) NW -6,7 C -5,2 C 0,3 km/h (0 Bft)
31.12.2016 21:00 -5,9 C 91 % 1031,6 hPa 0,0 l/m 0,0 km/h (0 Bft) NW -7,1 C -5,9 C 0,0 km/h (0 Bft)
31.12.2016 22:00 -6,4 C 92 % 1030,8 hPa 0,0 l/m 0,0 km/h (0 Bft) NW -7,6 C -6,4 C 0,0 km/h (0 Bft)
31.12.2016 23:00 -6,9 C 92 % 1030,2 hPa 0,0 l/m 0,0 km/h (0 Bft) NW -7,9 C -6,9 C 0,1 km/h (0 Bft)
01.01.2017 00:00 -7,1 C 93 % 1029,8 hPa 0,0 l/m 0,0 km/h (0 Bft) NW -8,0 C -7,1 C 0,2 km/h (0 Bft)
01.01.2017 01:00 -6,9 C 93 % 1028,9 hPa 0,0 l/m 0,1 km/h (0 Bft) NW -7,9 C -6,9 C 0,4 km/h (0 Bft)
01.01.2017 02:00 -6,9 C 92 % 1028,2 hPa 0,0 l/m 0,0 km/h (0 Bft) NW -8,0 C -6,9 C 0,7 km/h (0 Bft)
01.01.2017 03:00 -7,3 C 92 % 1027,5 hPa 0,0 l/m 0,1 km/h (0 Bft) NW -8,4 C -7,3 C 0,5 km/h (0 Bft)
01.01.2017 04:00 -7,5 C 91 % 1026,9 hPa 0,0 l/m 0,2 km/h (0 Bft) NW -8,7 C -7,5 C 0,9 km/h (0 Bft)
01.01.2017 05:00 -8,1 C 91 % 1026,2 hPa 0,0 l/m 0,0 km/h (0 Bft) NW -9,3 C -8,1 C 0,3 km/h (0 Bft)
01.01.2017 06:00 -8,2 C 91 % 1026,0 hPa 0,0 l/m 0,0 km/h (0 Bft) NW -9,4 C -8,2 C 0,2 km/h (0 Bft)
01.01.2017 07:00 -8,3 C 90 % 1025,5 hPa 0,0 l/m 0,3 km/h (0 Bft) NW -9,6 C -8,3 C 1,5 km/h (1 Bft)
01.01.2017 08:00 -8,1 C 90 % 1025,1 hPa 0,0 l/m 0,2 km/h (0 Bft) W -9,4 C -8,1 C 1,6 km/h (1 Bft)
01.01.2017 09:00 -6,6 C 90 % 1024,9 hPa 0,0 l/m 0,3 km/h (0 Bft) W -8,0 C -6,6 C 1,6 km/h (1 Bft)
01.01.2017 10:00 -3,2 C 82 % 1024,5 hPa 0,0 l/m 1,5 km/h (1 Bft) W -5,8 C -3,2 C 3,6 km/h (1 Bft)
01.01.2017 11:00 0,6 C 77 % 1023,5 hPa 0,0 l/m 1,7 km/h (1 Bft) W-NW -2,9 C 0,6 C 3,4 km/h (1 Bft)
01.01.2017 12:00 4,4 C 70 % 1022,6 hPa 0,0 l/m 2,5 km/h (1 Bft) NO -0,6 C 4,4 C 5,2 km/h (1 Bft)
01.01.2017 13:00 7,6 C 54 % 1021,5 hPa 0,0 l/m 3,4 km/h (1 Bft) N-NO -1,1 C 7,6 C 7,9 km/h (2 Bft)
01.01.2017 14:00 8,1 C 51 % 1020,7 hPa 0,0 l/m 3,2 km/h (1 Bft) NO -1,4 C 8,1 C 7,1 km/h (2 Bft)
01.01.2017 15:00 7,0 C 51 % 1020,7 hPa 0,0 l/m 3,7 km/h (1 Bft) O-NO -2,3 C 7,0 C 8,7 km/h (2 Bft)
01.01.2017 16:00 4,1 C 63 % 1020,8 hPa 0,0 l/m 1,9 km/h (1 Bft) O-NO -2,5 C 4,1 C 5,6 km/h (2 Bft)
01.01.2017 17:00 1,7 C 75 % 1021,2 hPa 0,0 l/m 0,9 km/h (0 Bft) NO -2,2 C 1,7 C 2,8 km/h (1 Bft)
01.01.2017 18:00 1,0 C 80 % 1021,4 hPa 0,0 l/m 0,7 km/h (0 Bft) NO -2,0 C 1,0 C 2,8 km/h (1 Bft)
01.01.2017 19:00 0,1 C 87 % 1021,5 hPa 0,0 l/m 2,2 km/h (1 Bft) O-NO -1,8 C 0,1 C 5,8 km/h (2 Bft)
01.01.2017 20:00 1,0 C 85 % 1021,2 hPa 0,0 l/m 4,6 km/h (1 Bft) O-NO -1,2 C 0,5 C 11,1 km/h (2 Bft)
01.01.2017 21:00 0,4 C 87 % 1021,4 hPa 0,0 l/m 2,0 km/h (1 Bft) O -1,6 C 0,4 C 6,0 km/h (2 Bft)
01.01.2017 22:00 -0,1 C 89 % 1021,3 hPa 0,0 l/m 1,5 km/h (1 Bft) O-SO -1,7 C -0,1 C 4,7 km/h (1 Bft)
01.01.2017 23:00 0,1 C 89 % 1021,5 hPa 0,0 l/m 2,4 km/h (1 Bft) O -1,6 C 0,1 C 7,1 km/h (2 Bft)
Min-Datum _ 31.12.16 01.01.17 01.01.17 - 01.01.17 - 31.12.16 31.12.16 01.01.17
_ Min-Zeit 08:25 14:40 14:40 - 18:00 - 07:20 08:25 17:56
Minimum _ -9,4 C 48 % 1020,5 hPa - 0,0 km/h (0 Bft) - -10,5 C -9,4 C 0,0 km/h (0 Bft)
Max-Datum _ 01.01.17 28.12.16 28.12.16 26.12.16 26.12.16 - 26.12.16 01.01.17 26.12.16
_ Max-Zeit 14:05 21:30 09:20 18:15 13:01 - 19:00 14:05 11:25
Maximum _ 8,3 C 97 % 1046,4 hPa 0,8 l/m 11,3 km/h
O-NO (2 Bft)
- 5,2 C 8,3 C 24,1 km/h
O (4 Bft)
Durchschnitt _ -1,8 C 89 % 1036,8 hPa #2,5 l/m 1,0 km/h (0 Bft) NW -3,5 C -1,8 C 2,6 km/h (1 Bft)